createdAt,value
2022-10-13T00:00:43.830Z,56.52
2022-10-13T00:05:41.919Z,55.87
2022-10-13T00:10:38.581Z,55.86
2022-10-13T00:15:33.430Z,56.38
2022-10-13T00:20:26.713Z,56.49
2022-10-13T00:25:19.882Z,56.31
2022-10-13T00:30:12.655Z,56.40
2022-10-13T00:35:07.867Z,56.46
2022-10-13T00:40:01.913Z,56.50
2022-10-13T00:45:18.351Z,55.95
2022-10-13T00:50:15.606Z,56.14
2022-10-13T00:55:14.617Z,56.38
2022-10-13T01:00:09.166Z,56.15
2022-10-13T01:05:04.508Z,56.00
2022-10-13T01:09:57.957Z,55.94
2022-10-13T01:15:13.829Z,55.62
2022-10-13T01:20:25.372Z,55.89
2022-10-13T01:25:46.934Z,55.57
2022-10-13T01:30:49.645Z,55.54
2022-10-13T01:36:24.072Z,55.80
2022-10-13T01:41:23.841Z,55.75
2022-10-13T01:46:24.789Z,55.51
2022-10-13T01:51:20.769Z,55.90
2022-10-13T01:56:57.165Z,55.61
2022-10-13T02:02:17.846Z,55.47
2022-10-13T02:07:43.255Z,55.45
2022-10-13T02:13:00.363Z,55.46
2022-10-13T02:17:56.566Z,55.54
2022-10-13T02:22:56.596Z,55.70
2022-10-13T02:27:49.912Z,55.72
2022-10-13T02:32:43.832Z,55.93
2022-10-13T02:37:37.686Z,56.01
2022-10-13T02:42:31.023Z,55.63
2022-10-13T02:47:30.581Z,55.90
2022-10-13T02:52:25.013Z,55.52
2022-10-13T02:57:18.655Z,55.88
2022-10-13T03:02:14.484Z,55.39
2022-10-13T03:07:08.155Z,55.60
2022-10-13T03:12:01.873Z,55.18
2022-10-13T03:16:55.581Z,55.69
2022-10-13T03:21:48.483Z,55.21
2022-10-13T03:26:42.421Z,55.12
2022-10-13T03:31:36.372Z,55.36
2022-10-13T03:36:30.359Z,55.22
2022-10-13T03:41:24.531Z,55.40
2022-10-13T03:46:18.836Z,55.28
2022-10-13T03:51:16.697Z,55.38
2022-10-13T03:56:21.309Z,55.47
2022-10-13T04:01:18.014Z,55.10
2022-10-13T04:06:14.175Z,54.98
2022-10-13T04:11:11.005Z,55.01
2022-10-13T04:16:14.173Z,55.13
2022-10-13T04:21:17.491Z,55.26
2022-10-13T04:26:18.326Z,55.32
2022-10-13T04:31:11.489Z,55.12
2022-10-13T04:36:06.313Z,54.82
2022-10-13T04:40:59.668Z,55.34
2022-10-13T04:45:54.399Z,55.29
2022-10-13T04:50:47.350Z,54.89
2022-10-13T04:55:41.785Z,54.86
2022-10-13T05:00:35.890Z,55.38
2022-10-13T05:05:29.476Z,55.40
2022-10-13T05:10:23.609Z,55.05
2022-10-13T05:15:17.377Z,55.21
2022-10-13T05:20:11.189Z,54.88
2022-10-13T05:25:04.536Z,55.29
2022-10-13T05:29:58.677Z,54.75
2022-10-13T05:34:52.130Z,53.21
2022-10-13T05:39:48.783Z,51.99
2022-10-13T05:44:42.978Z,51.52
2022-10-13T05:49:40.378Z,52.06
2022-10-13T05:54:42.223Z,51.81
2022-10-13T05:59:40.681Z,51.23
2022-10-13T06:04:42.329Z,51.42
2022-10-13T06:09:38.568Z,51.58
2022-10-13T06:14:36.277Z,51.40
2022-10-13T06:19:32.520Z,51.50
2022-10-13T06:24:33.675Z,51.56
2022-10-13T06:29:27.419Z,51.00
2022-10-13T06:34:20.491Z,51.11
2022-10-13T06:39:13.608Z,50.90
2022-10-13T06:44:07.355Z,50.84
2022-10-13T06:49:00.311Z,50.78
2022-10-13T06:53:57.119Z,50.57
2022-10-13T06:58:51.601Z,50.99
2022-10-13T07:03:45.078Z,50.64
2022-10-13T07:08:39.062Z,50.95
2022-10-13T07:13:36.358Z,50.87
2022-10-13T07:18:31.764Z,51.10
2022-10-13T07:23:25.484Z,51.14
2022-10-13T07:28:18.981Z,51.15
2022-10-13T07:33:13.717Z,51.28
2022-10-13T07:38:08.776Z,51.41
2022-10-13T07:43:02.421Z,51.66
2022-10-13T07:47:57.143Z,51.91
2022-10-13T07:52:50.153Z,51.80
2022-10-13T07:57:43.774Z,51.93
2022-10-13T08:02:37.852Z,52.26
2022-10-13T08:07:32.471Z,52.02
2022-10-13T08:12:26.175Z,53.39
2022-10-13T08:17:19.771Z,53.17
2022-10-13T08:22:13.332Z,53.33
2022-10-13T08:27:11.524Z,55.04
2022-10-13T08:32:05.254Z,53.33
2022-10-13T08:37:00.758Z,53.15
2022-10-13T08:41:58.090Z,53.17
2022-10-13T08:47:08.279Z,53.53
2022-10-13T08:52:06.068Z,53.93
2022-10-13T09:02:15.868Z,54.10
2022-10-13T09:07:16.889Z,53.87
2022-10-13T09:12:13.922Z,53.97
2022-10-13T09:17:24.368Z,54.61
2022-10-13T09:22:24.804Z,54.24
2022-10-13T09:27:18.356Z,53.97
2022-10-13T09:32:17.899Z,53.02
2022-10-13T09:37:26.196Z,54.05
2022-10-13T09:42:24.021Z,53.49
2022-10-13T09:47:26.431Z,53.10
2022-10-13T09:52:23.042Z,53.08
2022-10-13T09:57:32.598Z,53.34
2022-10-13T10:02:36.356Z,53.73
2022-10-13T10:07:32.600Z,54.46
2022-10-13T10:12:30.816Z,54.98
2022-10-13T10:17:38.615Z,55.43
2022-10-13T10:22:43.956Z,55.52
2022-10-13T10:27:45.457Z,55.85
2022-10-13T10:32:55.764Z,55.78
2022-10-13T10:38:18.935Z,56.14
2022-10-13T10:43:27.348Z,56.80
2022-10-13T10:48:24.400Z,57.08
2022-10-13T10:53:58.325Z,56.74
2022-10-13T10:58:51.764Z,56.96
2022-10-13T11:04:36.339Z,54.00
2022-10-13T11:10:02.958Z,53.39
2022-10-13T11:14:55.860Z,53.03
2022-10-13T11:19:50.297Z,54.49
2022-10-13T11:24:43.289Z,54.04
2022-10-13T11:29:50.011Z,53.13
2022-10-13T11:34:58.268Z,53.08
2022-10-13T11:40:11.209Z,52.62
2022-10-13T11:45:59.544Z,52.43
2022-10-13T11:50:52.221Z,53.14
2022-10-13T11:55:56.823Z,50.05
2022-10-13T12:00:59.193Z,50.19
2022-10-13T12:05:53.012Z,49.13
2022-10-13T12:10:46.422Z,50.43
2022-10-13T12:15:43.951Z,50.38
2022-10-13T12:20:37.627Z,50.12
2022-10-13T12:25:32.055Z,50.73
2022-10-13T12:30:31.155Z,49.92
2022-10-13T12:35:27.541Z,49.67
2022-10-13T12:40:21.596Z,49.80
2022-10-13T12:45:20.795Z,49.42
2022-10-13T12:50:26.042Z,49.47
2022-10-13T12:55:22.028Z,49.71
2022-10-13T13:00:24.763Z,48.28
2022-10-13T13:05:57.297Z,48.28
2022-10-13T13:11:04.796Z,48.69
2022-10-13T13:16:20.284Z,48.89
2022-10-13T13:21:19.344Z,48.87
2022-10-13T13:26:30.614Z,49.87
2022-10-13T13:31:26.077Z,49.63
2022-10-13T13:36:22.729Z,50.16
2022-10-13T13:41:18.489Z,50.27
2022-10-13T13:46:22.368Z,48.96
2022-10-13T13:51:16.562Z,48.59
2022-10-13T13:56:13.884Z,48.65
2022-10-13T14:01:07.385Z,49.42
2022-10-13T14:06:01.077Z,50.55
2022-10-13T14:10:54.479Z,49.99
2022-10-13T14:15:58.750Z,50.48
2022-10-13T14:20:52.672Z,49.32
2022-10-13T14:25:45.865Z,48.90
2022-10-13T14:30:42.618Z,50.60
2022-10-13T14:35:37.210Z,50.99
2022-10-13T14:40:30.953Z,53.49
2022-10-13T14:45:24.682Z,54.79
2022-10-13T14:50:17.796Z,54.91
2022-10-13T14:55:12.853Z,56.72
2022-10-13T15:00:07.623Z,56.77
2022-10-13T15:05:01.319Z,57.18
2022-10-13T15:10:11.750Z,57.41
2022-10-13T15:15:05.403Z,57.68
2022-10-13T15:19:59.351Z,57.99
2022-10-13T15:24:56.416Z,57.80
2022-10-13T15:29:49.675Z,54.86
2022-10-13T15:34:44.985Z,55.82
2022-10-13T15:39:39.938Z,54.67
2022-10-13T15:44:57.505Z,56.27
2022-10-13T15:49:47.381Z,54.41
2022-10-13T15:54:41.496Z,54.47
2022-10-13T15:59:35.807Z,54.96
2022-10-13T16:04:34.871Z,58.23
2022-10-13T16:09:31.011Z,58.15
2022-10-13T16:14:24.602Z,58.30
2022-10-13T16:19:18.808Z,57.76
2022-10-13T16:24:12.824Z,58.31
2022-10-13T16:29:07.029Z,58.27
2022-10-13T16:34:01.945Z,58.66
2022-10-13T16:38:55.789Z,58.57
2022-10-13T16:43:48.850Z,58.60
2022-10-13T16:48:43.512Z,58.71
2022-10-13T16:53:37.113Z,59.50
2022-10-13T16:58:30.917Z,59.20
2022-10-13T17:03:28.092Z,59.30
2022-10-13T17:08:22.233Z,59.04
2022-10-13T17:13:15.926Z,58.88
2022-10-13T17:18:10.877Z,59.44
2022-10-13T17:23:03.937Z,58.85
2022-10-13T17:27:58.166Z,58.82
2022-10-13T17:32:52.955Z,58.97
2022-10-13T17:37:48.932Z,58.62
2022-10-13T17:42:48.281Z,58.73
2022-10-13T17:47:49.792Z,58.72
2022-10-13T17:52:43.007Z,58.55
2022-10-13T17:57:36.773Z,58.90
2022-10-13T18:02:31.599Z,58.45
2022-10-13T18:07:25.436Z,58.78
2022-10-13T18:12:19.152Z,58.58
2022-10-13T18:17:13.043Z,58.72
2022-10-13T18:22:07.257Z,58.79
2022-10-13T18:27:01.627Z,58.64
2022-10-13T18:31:56.636Z,58.27
2022-10-13T18:36:54.041Z,58.37
2022-10-13T18:41:51.561Z,58.22
2022-10-13T18:46:45.151Z,58.19
2022-10-13T18:51:39.933Z,57.85
2022-10-13T18:56:34.874Z,57.94
2022-10-13T19:01:30.738Z,58.13
2022-10-13T19:06:27.550Z,58.02
2022-10-13T19:11:22.405Z,57.87
2022-10-13T19:16:18.914Z,57.34
2022-10-13T19:21:12.857Z,57.80
2022-10-13T19:26:18.836Z,57.65
2022-10-13T19:31:19.180Z,58.13
2022-10-13T19:36:20.341Z,57.28
2022-10-13T19:41:15.358Z,57.17
2022-10-13T19:46:10.619Z,56.35
2022-10-13T19:51:07.322Z,56.31
2022-10-13T19:56:00.469Z,56.20
2022-10-13T20:00:54.472Z,55.94
2022-10-13T20:05:48.101Z,56.44
2022-10-13T20:10:42.683Z,56.21
2022-10-13T20:15:40.851Z,55.91
2022-10-13T20:20:35.256Z,57.06
2022-10-13T20:25:28.570Z,57.40
2022-10-13T20:30:22.022Z,56.38
2022-10-13T20:35:15.101Z,56.30
2022-10-13T20:40:11.323Z,56.37
2022-10-13T20:45:05.835Z,55.94
2022-10-13T20:50:00.100Z,55.71
2022-10-13T20:54:54.368Z,56.38
2022-10-13T20:59:49.500Z,56.20
2022-10-13T21:04:43.552Z,56.04
2022-10-13T21:09:37.108Z,55.84
2022-10-13T21:14:34.969Z,56.51
2022-10-13T21:19:29.811Z,55.79
2022-10-13T21:24:24.061Z,56.08
2022-10-13T21:29:18.375Z,55.93
2022-10-13T21:34:15.524Z,56.27
2022-10-13T21:39:09.874Z,55.97
2022-10-13T21:44:04.137Z,56.22
2022-10-13T21:49:00.853Z,56.28
2022-10-13T21:53:56.851Z,56.13
2022-10-13T21:58:49.374Z,56.05
2022-10-13T22:03:47.075Z,55.81
2022-10-13T22:08:41.534Z,56.02
2022-10-13T22:13:47.062Z,56.25
2022-10-13T22:18:40.960Z,55.73
2022-10-13T22:23:38.809Z,55.79
2022-10-13T22:28:36.810Z,55.82
2022-10-13T22:33:30.325Z,55.86
2022-10-13T22:38:23.924Z,55.89
2022-10-13T22:43:17.802Z,55.96
2022-10-13T22:48:12.084Z,55.65
2022-10-13T22:53:10.229Z,56.02
2022-10-13T22:58:03.862Z,55.80
2022-10-13T23:02:56.953Z,55.74
2022-10-13T23:07:50.358Z,55.87
2022-10-13T23:12:43.948Z,56.05
2022-10-13T23:17:37.464Z,55.66
2022-10-13T23:22:31.446Z,55.84
2022-10-13T23:27:24.796Z,55.66
2022-10-13T23:32:18.299Z,56.01
2022-10-13T23:37:13.155Z,56.03
2022-10-13T23:42:08.123Z,55.99
2022-10-13T23:47:01.481Z,55.67
2022-10-13T23:51:55.283Z,55.54
2022-10-13T23:56:49.334Z,55.94
